createdAt,value
2023-02-21T00:00:34.472Z,59.88
2023-02-21T00:06:04.975Z,55.05
2023-02-21T00:08:50.180Z,56.03
2023-02-21T00:11:35.812Z,57.00
2023-02-21T00:14:21.265Z,58.30
2023-02-21T00:17:06.657Z,56.10
2023-02-21T00:19:51.947Z,55.70
2023-02-21T00:22:37.511Z,56.42
2023-02-21T00:25:23.310Z,54.33
2023-02-21T00:28:08.854Z,56.05
2023-02-21T00:30:54.390Z,54.45
2023-02-21T00:33:39.705Z,54.55
2023-02-21T00:36:25.227Z,56.77
2023-02-21T00:39:10.788Z,53.53
2023-02-21T00:41:56.090Z,54.65
2023-02-21T00:44:41.717Z,55.78
2023-02-21T00:47:27.015Z,53.40
2023-02-21T00:50:12.578Z,52.65
2023-02-21T00:52:57.961Z,53.70
2023-02-21T00:55:43.349Z,54.97
2023-02-21T00:58:28.818Z,54.33
2023-02-21T01:01:14.787Z,54.40
2023-02-21T01:04:00.238Z,54.35
2023-02-21T01:06:45.721Z,53.88
2023-02-21T01:09:31.229Z,54.30
2023-02-21T01:12:16.993Z,54.85
2023-02-21T01:15:02.353Z,54.67
2023-02-21T01:17:47.830Z,56.08
2023-02-21T01:20:33.224Z,53.30
2023-02-21T01:23:18.708Z,54.38
2023-02-21T01:26:04.235Z,53.35
2023-02-21T01:28:49.788Z,53.58
2023-02-21T01:31:38.417Z,53.22
2023-02-21T01:34:24.388Z,53.15
2023-02-21T01:37:10.344Z,52.30
2023-02-21T01:42:40.872Z,53.67
2023-02-21T01:45:52.489Z,50.70
2023-02-21T01:48:40.808Z,52.75
2023-02-21T01:51:28.900Z,51.83
2023-02-21T01:54:14.921Z,51.45
2023-02-21T01:59:45.217Z,49.20
2023-02-21T02:02:34.714Z,52.67
2023-02-21T02:05:21.098Z,54.55
2023-02-21T02:08:07.331Z,52.92
2023-02-21T02:10:52.842Z,50.72
2023-02-21T02:13:22.440Z,55.88
2023-02-21T02:15:58.113Z,51.72
2023-02-21T02:18:46.003Z,55.03
2023-02-21T02:21:39.720Z,52.53
2023-02-21T02:24:12.357Z,51.92
2023-02-21T02:26:47.947Z,50.65
2023-02-21T02:32:30.945Z,51.35
2023-02-21T02:35:04.419Z,50.67
2023-02-21T02:37:37.156Z,52.40
2023-02-21T02:40:18.596Z,54.00
2023-02-21T02:42:51.278Z,53.10
2023-02-21T02:45:34.000Z,52.22
2023-02-21T02:48:11.808Z,51.22
2023-02-21T02:50:40.222Z,50.55
2023-02-21T02:53:07.150Z,51.50
2023-02-21T02:55:52.067Z,51.13
2023-02-21T02:58:22.580Z,49.22
2023-02-21T03:01:07.720Z,52.50
2023-02-21T03:03:43.374Z,53.77
2023-02-21T03:06:29.120Z,51.85
2023-02-21T03:09:01.907Z,53.10
2023-02-21T03:11:28.808Z,51.97
2023-02-21T03:14:12.377Z,53.67
2023-02-21T03:16:51.503Z,49.47
2023-02-21T03:19:29.205Z,51.88
2023-02-21T03:22:00.843Z,51.20
2023-02-21T03:24:29.657Z,49.88
2023-02-21T03:27:02.791Z,50.17
2023-02-21T03:29:30.207Z,50.17
2023-02-21T03:32:13.096Z,49.67
2023-02-21T03:34:41.328Z,50.38
2023-02-21T03:37:10.449Z,49.30
2023-02-21T03:39:37.371Z,49.15
2023-02-21T03:42:04.380Z,49.38
2023-02-21T03:44:31.057Z,49.83
2023-02-21T03:46:57.753Z,47.95
2023-02-21T03:49:24.541Z,49.00
2023-02-21T03:51:51.302Z,50.88
2023-02-21T03:54:18.136Z,50.83
2023-02-21T03:56:44.904Z,51.13
2023-02-21T03:59:11.694Z,52.47
2023-02-21T04:01:38.670Z,52.22
2023-02-21T04:04:05.451Z,52.08
2023-02-21T04:06:32.286Z,52.17
2023-02-21T04:08:58.974Z,51.35
2023-02-21T04:11:25.738Z,51.22
2023-02-21T04:13:52.461Z,52.30
2023-02-21T04:16:19.338Z,53.25
2023-02-21T04:18:46.118Z,50.53
2023-02-21T04:21:17.275Z,52.47
2023-02-21T04:23:44.239Z,51.35
2023-02-21T04:26:10.992Z,52.80
2023-02-21T04:28:37.695Z,52.83
2023-02-21T04:31:04.555Z,50.25
2023-02-21T04:33:31.260Z,50.33
2023-02-21T04:35:58.169Z,50.75
2023-02-21T04:38:24.979Z,52.42
2023-02-21T04:40:51.669Z,51.95
2023-02-21T04:43:18.421Z,54.08
2023-02-21T04:45:45.207Z,50.92
2023-02-21T04:48:11.948Z,50.97
2023-02-21T04:50:38.674Z,52.75
2023-02-21T04:53:05.640Z,52.88
2023-02-21T04:55:32.348Z,55.97
2023-02-21T04:57:59.054Z,51.58
2023-02-21T05:00:25.805Z,51.78
2023-02-21T05:02:52.490Z,53.45
2023-02-21T05:05:19.198Z,53.55
2023-02-21T05:07:46.074Z,48.83
2023-02-21T05:10:15.066Z,52.13
2023-02-21T05:12:42.071Z,52.85
2023-02-21T05:15:10.145Z,52.55
2023-02-21T05:17:36.870Z,53.08
2023-02-21T05:20:04.512Z,50.55
2023-02-21T05:22:31.357Z,50.13
2023-02-21T05:24:58.085Z,48.67
2023-02-21T05:27:24.845Z,46.30
2023-02-21T05:29:53.291Z,45.55
2023-02-21T05:32:23.236Z,42.83
2023-02-21T05:34:49.965Z,44.13
2023-02-21T05:37:18.281Z,42.20
2023-02-21T05:39:45.015Z,39.55
2023-02-21T05:42:11.722Z,37.97
2023-02-21T05:44:38.468Z,36.58
2023-02-21T05:47:07.209Z,37.22
2023-02-21T05:49:33.916Z,34.72
2023-02-21T05:52:00.894Z,33.85
2023-02-21T05:54:27.578Z,35.85
2023-02-21T05:56:54.372Z,33.58
2023-02-21T05:59:21.634Z,33.28
2023-02-21T06:01:49.874Z,33.35
2023-02-21T06:04:17.306Z,30.23
2023-02-21T06:06:44.655Z,32.85
2023-02-21T06:09:12.162Z,28.40
2023-02-21T06:11:40.442Z,28.38
2023-02-21T06:14:13.600Z,26.85
2023-02-21T06:16:40.528Z,28.17
2023-02-21T06:19:08.814Z,26.25
2023-02-21T06:21:35.779Z,26.35
2023-02-21T06:24:03.278Z,27.33
2023-02-21T06:26:30.133Z,26.23
2023-02-21T06:28:57.224Z,26.50
2023-02-21T06:31:24.421Z,25.58
2023-02-21T06:33:51.457Z,26.77
2023-02-21T06:36:22.102Z,26.85
2023-02-21T06:38:51.450Z,25.65
2023-02-21T06:41:20.617Z,26.35
2023-02-21T06:43:47.565Z,25.48
2023-02-21T06:46:23.077Z,24.27
2023-02-21T06:51:17.807Z,25.27
2023-02-21T06:53:50.170Z,26.60
2023-02-21T06:56:17.272Z,26.48
2023-02-21T06:58:43.945Z,26.40
2023-02-21T07:01:10.648Z,25.95
2023-02-21T07:03:44.400Z,24.77
2023-02-21T07:06:11.586Z,26.63
2023-02-21T07:08:38.612Z,26.20
2023-02-21T07:11:06.077Z,26.50
2023-02-21T07:13:33.346Z,25.98
2023-02-21T07:16:00.716Z,25.60
2023-02-21T07:18:27.841Z,26.85
2023-02-21T07:20:54.631Z,27.95
2023-02-21T07:23:21.409Z,26.60
2023-02-21T07:25:48.273Z,28.10
2023-02-21T07:28:15.038Z,28.55
2023-02-21T07:30:41.810Z,28.42
2023-02-21T07:33:08.806Z,28.25
2023-02-21T07:35:35.544Z,28.75
2023-02-21T07:38:02.263Z,29.90
2023-02-21T07:40:29.247Z,29.33
2023-02-21T07:42:56.143Z,31.48
2023-02-21T07:45:22.859Z,30.42
2023-02-21T07:47:51.641Z,31.02
2023-02-21T07:50:18.556Z,31.08
2023-02-21T07:52:46.504Z,32.67
2023-02-21T07:55:13.556Z,33.03
2023-02-21T07:57:40.329Z,33.15
2023-02-21T08:00:07.898Z,32.42
2023-02-21T08:02:34.749Z,32.47
2023-02-21T08:05:01.579Z,33.45
2023-02-21T08:07:29.397Z,33.90
2023-02-21T08:09:56.168Z,32.80
2023-02-21T08:12:22.828Z,34.53
2023-02-21T08:14:49.512Z,33.92
2023-02-21T08:17:16.631Z,36.30
2023-02-21T08:19:43.464Z,34.65
2023-02-21T08:22:10.999Z,34.53
2023-02-21T08:24:38.008Z,35.35
2023-02-21T08:27:04.699Z,36.08
2023-02-21T08:29:31.413Z,36.40
2023-02-21T08:31:58.225Z,35.97
2023-02-21T08:34:25.113Z,35.45
2023-02-21T08:36:51.742Z,35.97
2023-02-21T08:39:18.610Z,37.58
2023-02-21T08:41:48.443Z,37.70
2023-02-21T08:44:16.994Z,38.25
2023-02-21T08:46:44.394Z,36.50
2023-02-21T08:49:11.410Z,38.97
2023-02-21T08:51:38.411Z,36.75
2023-02-21T08:54:05.198Z,40.45
2023-02-21T08:56:32.989Z,39.38
2023-02-21T08:59:00.543Z,39.33
2023-02-21T09:01:33.849Z,41.25
2023-02-21T09:04:01.524Z,40.70
2023-02-21T09:06:28.736Z,40.00
2023-02-21T09:08:56.749Z,41.60
2023-02-21T09:11:23.445Z,41.72
2023-02-21T09:13:50.291Z,42.05
2023-02-21T09:16:17.247Z,43.10
2023-02-21T09:18:44.006Z,42.30
2023-02-21T09:21:10.746Z,42.22
2023-02-21T09:23:37.527Z,41.83
2023-02-21T09:26:04.345Z,43.40
2023-02-21T09:28:31.627Z,41.40
2023-02-21T09:30:58.519Z,42.30
2023-02-21T09:33:25.436Z,43.17
2023-02-21T09:35:53.874Z,42.65
2023-02-21T09:38:20.645Z,42.50
2023-02-21T09:40:56.444Z,43.78
2023-02-21T09:43:42.834Z,41.47
2023-02-21T09:46:21.126Z,42.28
2023-02-21T09:48:48.612Z,42.90
2023-02-21T09:51:16.887Z,44.05
2023-02-21T09:53:47.140Z,45.60
2023-02-21T09:56:29.866Z,44.38
2023-02-21T09:58:58.779Z,45.50
2023-02-21T10:01:25.471Z,44.50
2023-02-21T10:04:15.032Z,44.47
2023-02-21T10:06:47.990Z,44.97
2023-02-21T10:09:37.092Z,43.65
2023-02-21T10:12:24.332Z,44.42
2023-02-21T10:15:00.600Z,45.97
2023-02-21T10:17:56.312Z,45.95
2023-02-21T10:20:33.141Z,45.55
2023-02-21T10:23:02.356Z,44.33
2023-02-21T10:25:32.722Z,44.85
2023-02-21T10:28:00.777Z,44.75
2023-02-21T10:30:40.607Z,45.50
2023-02-21T10:33:08.129Z,46.58
2023-02-21T10:35:36.400Z,45.22
2023-02-21T10:38:09.874Z,46.80
2023-02-21T10:40:41.770Z,45.97
2023-02-21T10:43:36.301Z,46.53
2023-02-21T10:46:05.923Z,45.35
2023-02-21T10:48:36.413Z,49.35
2023-02-21T10:51:07.756Z,45.75
2023-02-21T10:53:37.102Z,48.20
2023-02-21T10:56:16.584Z,47.67
2023-02-21T10:59:05.403Z,46.28
2023-02-21T11:01:43.473Z,47.53
2023-02-21T11:04:27.506Z,45.95
2023-02-21T11:06:58.016Z,46.65
2023-02-21T11:09:27.565Z,45.05
2023-02-21T11:12:06.502Z,46.75
2023-02-21T11:14:34.853Z,46.90
2023-02-21T11:17:17.585Z,46.67
2023-02-21T11:19:47.813Z,45.40
2023-02-21T11:22:16.126Z,44.00
2023-02-21T11:25:01.040Z,43.80
2023-02-21T11:27:31.252Z,41.58
2023-02-21T11:29:59.223Z,43.05
2023-02-21T11:32:34.232Z,43.47
2023-02-21T11:35:20.159Z,40.15
2023-02-21T11:37:51.781Z,41.40
2023-02-21T11:40:29.418Z,41.30
2023-02-21T11:43:20.016Z,41.17
2023-02-21T11:46:36.561Z,41.50
2023-02-21T11:49:12.433Z,40.33
2023-02-21T11:51:47.445Z,39.13
2023-02-21T11:54:14.911Z,37.78
2023-02-21T11:56:50.720Z,36.92
2023-02-21T11:59:41.603Z,31.42
2023-02-21T12:02:36.973Z,31.42
2023-02-21T12:05:28.450Z,31.50
2023-02-21T12:08:19.960Z,23.00
2023-02-21T12:11:07.855Z,21.13
2023-02-21T12:14:08.415Z,21.48
2023-02-21T12:16:43.159Z,20.20
2023-02-21T12:19:32.705Z,21.17
2023-02-21T12:22:33.795Z,18.75
2023-02-21T12:25:08.364Z,19.52
2023-02-21T12:27:40.978Z,19.58
2023-02-21T12:30:45.404Z,18.90
2023-02-21T12:33:21.100Z,17.70
2023-02-21T12:36:15.605Z,18.08
2023-02-21T12:39:00.604Z,19.42
2023-02-21T12:41:48.655Z,17.13
2023-02-21T12:44:35.937Z,16.83
2023-02-21T12:47:30.840Z,15.95
2023-02-21T12:50:07.158Z,17.13
2023-02-21T12:52:39.046Z,19.33
2023-02-21T12:55:21.330Z,17.92
2023-02-21T12:57:56.925Z,17.35
2023-02-21T13:00:34.295Z,18.08
2023-02-21T13:03:22.794Z,17.77
2023-02-21T13:05:54.982Z,18.05
2023-02-21T13:08:48.649Z,16.95
2023-02-21T13:11:28.147Z,17.77
2023-02-21T13:13:56.327Z,17.83
2023-02-21T13:16:23.603Z,18.17
2023-02-21T13:19:00.397Z,18.05
2023-02-21T13:21:54.385Z,14.90
2023-02-21T13:24:23.935Z,15.98
2023-02-21T13:27:14.990Z,15.40
2023-02-21T13:29:42.903Z,16.08
2023-02-21T13:32:21.620Z,15.82
2023-02-21T13:34:53.170Z,13.70
2023-02-21T13:37:23.056Z,14.57
2023-02-21T13:39:54.264Z,14.68
2023-02-21T13:42:26.086Z,14.57
2023-02-21T13:45:25.257Z,14.93
2023-02-21T13:47:58.362Z,16.20
2023-02-21T13:50:35.685Z,16.02
2023-02-21T13:53:32.651Z,16.92
2023-02-21T13:55:59.380Z,17.67
2023-02-21T13:58:43.905Z,17.30
2023-02-21T14:01:28.950Z,18.08
2023-02-21T14:03:59.803Z,19.10
2023-02-21T14:06:38.837Z,16.33
2023-02-21T14:09:26.110Z,15.70
2023-02-21T14:11:54.758Z,15.88
2023-02-21T14:14:29.874Z,16.83
2023-02-21T14:17:06.160Z,15.93
2023-02-21T14:19:41.653Z,15.35
2023-02-21T14:22:38.735Z,17.65
2023-02-21T14:25:21.460Z,17.40
2023-02-21T14:27:48.146Z,16.50
2023-02-21T14:30:24.128Z,15.98
2023-02-21T14:32:54.939Z,19.63
2023-02-21T14:35:39.263Z,17.40
2023-02-21T14:38:16.256Z,16.65
2023-02-21T14:40:45.998Z,17.98
2023-02-21T14:43:33.041Z,17.55
2023-02-21T14:46:12.350Z,19.25
2023-02-21T14:49:07.060Z,19.63
2023-02-21T14:51:48.811Z,19.20
2023-02-21T14:54:38.644Z,18.10
2023-02-21T14:57:23.890Z,18.25
2023-02-21T15:00:25.580Z,19.40
2023-02-21T15:03:17.449Z,18.00
2023-02-21T15:05:50.090Z,20.05
2023-02-21T15:08:24.173Z,20.17
2023-02-21T15:10:56.209Z,21.02
2023-02-21T15:13:28.363Z,20.67
2023-02-21T15:16:02.306Z,19.35
2023-02-21T15:18:32.081Z,20.40
2023-02-21T15:21:20.075Z,20.65
2023-02-21T15:23:49.154Z,19.30
2023-02-21T15:26:29.952Z,20.55
2023-02-21T15:29:08.538Z,19.65
2023-02-21T15:31:49.563Z,20.08
2023-02-21T15:34:39.785Z,19.45
2023-02-21T15:37:23.674Z,19.98
2023-02-21T15:39:55.828Z,18.95
2023-02-21T15:42:23.708Z,20.55
2023-02-21T15:44:58.542Z,20.50
2023-02-21T15:47:27.030Z,21.67
2023-02-21T15:49:54.662Z,20.45
2023-02-21T15:52:27.385Z,22.33
2023-02-21T15:55:19.743Z,23.05
2023-02-21T15:58:02.977Z,23.27
2023-02-21T16:00:41.343Z,23.13
2023-02-21T16:03:26.970Z,23.00
2023-02-21T16:06:14.359Z,22.05
2023-02-21T16:08:58.877Z,23.10
2023-02-21T16:11:47.488Z,22.25
2023-02-21T16:14:40.291Z,21.23
2023-02-21T16:17:24.935Z,21.67
2023-02-21T16:19:54.942Z,21.13
2023-02-21T16:22:24.559Z,22.23
2023-02-21T16:25:04.317Z,21.77
2023-02-21T16:27:30.982Z,22.80
2023-02-21T16:29:57.648Z,22.17
2023-02-21T16:32:24.584Z,24.05
2023-02-21T16:34:54.777Z,24.33
2023-02-21T16:37:22.676Z,22.27
2023-02-21T16:39:49.846Z,19.95
2023-02-21T16:42:16.718Z,21.63
2023-02-21T16:44:43.707Z,20.17
2023-02-21T16:47:18.420Z,22.55
2023-02-21T16:49:45.152Z,21.33
2023-02-21T16:52:16.323Z,22.83
2023-02-21T16:54:43.321Z,22.48
2023-02-21T16:57:11.294Z,22.02
2023-02-21T16:59:38.451Z,22.90
2023-02-21T17:02:06.679Z,23.05
2023-02-21T17:04:33.919Z,22.60
2023-02-21T17:07:04.461Z,22.80
2023-02-21T17:09:38.982Z,21.88
2023-02-21T17:12:07.208Z,21.90
2023-02-21T17:14:34.434Z,21.85
2023-02-21T17:17:01.143Z,23.52
2023-02-21T17:19:27.889Z,23.75
2023-02-21T17:21:57.612Z,22.60
2023-02-21T17:24:24.958Z,22.67
2023-02-21T17:26:55.190Z,23.70
2023-02-21T17:29:22.247Z,23.33
2023-02-21T17:31:54.304Z,23.73
2023-02-21T17:34:21.400Z,24.77
2023-02-21T17:36:52.317Z,23.17
2023-02-21T17:39:20.913Z,23.90
2023-02-21T17:41:51.847Z,27.13
2023-02-21T17:44:19.467Z,28.75
2023-02-21T17:46:51.589Z,27.92
2023-02-21T17:49:21.066Z,27.13
2023-02-21T17:51:49.152Z,27.77
2023-02-21T17:54:23.477Z,25.73
2023-02-21T17:56:50.693Z,26.73
2023-02-21T17:59:18.584Z,26.10
2023-02-21T18:01:45.793Z,28.88
2023-02-21T18:04:13.702Z,27.23
2023-02-21T18:06:41.437Z,27.80
2023-02-21T18:09:08.310Z,29.30
2023-02-21T18:11:35.938Z,28.42
2023-02-21T18:14:03.059Z,27.40
2023-02-21T18:16:29.940Z,25.60
2023-02-21T18:18:56.698Z,27.17
2023-02-21T18:21:23.670Z,26.70
2023-02-21T18:23:51.790Z,29.10
2023-02-21T18:26:18.872Z,32.30
2023-02-21T18:28:45.558Z,31.75
2023-02-21T18:31:16.752Z,29.63
2023-02-21T18:33:43.798Z,29.50
2023-02-21T18:36:10.657Z,29.73
2023-02-21T18:38:40.715Z,28.08
2023-02-21T18:41:15.825Z,29.23
2023-02-21T18:43:44.415Z,29.73
2023-02-21T18:46:13.040Z,29.02
2023-02-21T18:48:43.271Z,29.40
2023-02-21T18:51:11.735Z,29.45
2023-02-21T18:53:38.571Z,30.42
2023-02-21T18:56:10.426Z,29.70
2023-02-21T18:58:38.498Z,28.15
2023-02-21T19:01:06.434Z,28.60
2023-02-21T19:03:33.312Z,29.33
2023-02-21T19:06:01.046Z,28.02
2023-02-21T19:08:27.841Z,30.40
2023-02-21T19:10:54.478Z,31.77
2023-02-21T19:13:21.374Z,28.83
2023-02-21T19:15:48.067Z,27.80
2023-02-21T19:18:15.012Z,28.75
2023-02-21T19:20:43.629Z,30.48
2023-02-21T19:23:10.445Z,31.13
2023-02-21T19:25:37.520Z,31.17
2023-02-21T19:28:06.798Z,30.27
2023-02-21T19:30:36.802Z,31.40
2023-02-21T19:33:05.679Z,30.38
2023-02-21T19:35:34.352Z,29.67
2023-02-21T19:38:06.927Z,31.38
2023-02-21T19:40:34.241Z,37.35
2023-02-21T19:43:01.377Z,36.25
2023-02-21T19:45:28.439Z,33.65
2023-02-21T19:47:55.111Z,32.95
2023-02-21T19:50:22.133Z,31.52
2023-02-21T19:52:54.541Z,31.17
2023-02-21T19:55:21.442Z,31.38
2023-02-21T19:57:48.296Z,31.67
2023-02-21T20:00:15.529Z,32.95
2023-02-21T20:02:44.468Z,32.22
2023-02-21T20:05:14.013Z,32.67
2023-02-21T20:07:41.628Z,32.78
2023-02-21T20:10:09.704Z,34.08
2023-02-21T20:12:36.786Z,32.47
2023-02-21T20:15:04.896Z,33.50
2023-02-21T20:17:31.700Z,32.33
2023-02-21T20:19:58.476Z,32.30
2023-02-21T20:22:31.205Z,31.25
2023-02-21T20:24:57.940Z,32.55
2023-02-21T20:27:24.982Z,32.75
2023-02-21T20:29:51.731Z,31.10
2023-02-21T20:32:18.683Z,32.20
2023-02-21T20:34:45.565Z,31.33
2023-02-21T20:37:14.359Z,31.27
2023-02-21T20:39:41.669Z,31.17
2023-02-21T20:42:08.621Z,31.85
2023-02-21T20:44:37.546Z,31.13
2023-02-21T20:47:05.875Z,32.80
2023-02-21T20:49:35.252Z,32.30
2023-02-21T20:52:02.418Z,32.72
2023-02-21T20:54:29.244Z,33.13
2023-02-21T20:56:57.620Z,32.20
2023-02-21T20:59:30.677Z,32.42
2023-02-21T21:01:58.442Z,31.73
2023-02-21T21:04:43.191Z,30.83
2023-02-21T21:07:15.388Z,32.30
2023-02-21T21:09:42.532Z,31.60
2023-02-21T21:12:14.451Z,30.48
2023-02-21T21:14:45.908Z,31.48
2023-02-21T21:17:16.133Z,31.90
2023-02-21T21:19:45.148Z,31.23
2023-02-21T21:22:14.222Z,31.02
2023-02-21T21:24:41.414Z,32.63
2023-02-21T21:27:10.150Z,31.40
2023-02-21T21:29:43.315Z,32.50
2023-02-21T21:32:16.169Z,31.35
2023-02-21T21:34:48.308Z,32.00
2023-02-21T21:37:17.124Z,31.17
2023-02-21T21:39:45.708Z,31.13
2023-02-21T21:42:17.095Z,30.52
2023-02-21T21:44:54.933Z,30.75
2023-02-21T21:47:28.377Z,30.55
2023-02-21T21:49:55.396Z,32.90
2023-02-21T21:52:23.871Z,31.10
2023-02-21T21:54:50.960Z,31.30
2023-02-21T21:57:19.139Z,32.22
2023-02-21T21:59:49.879Z,32.25
2023-02-21T22:02:16.759Z,31.20
2023-02-21T22:04:44.687Z,31.88
2023-02-21T22:07:12.442Z,31.35
2023-02-21T22:09:39.581Z,31.60
2023-02-21T22:12:07.787Z,31.77
2023-02-21T22:14:35.152Z,30.98
2023-02-21T22:17:02.129Z,30.88
2023-02-21T22:19:29.108Z,30.45
2023-02-21T22:21:56.925Z,32.25
2023-02-21T22:24:24.788Z,31.70
2023-02-21T22:26:53.786Z,32.90
2023-02-21T22:29:20.988Z,31.05
2023-02-21T22:31:49.671Z,31.63
2023-02-21T22:34:26.677Z,31.17
2023-02-21T22:36:58.583Z,30.00
2023-02-21T22:39:26.810Z,31.73
2023-02-21T22:41:54.439Z,35.28
2023-02-21T22:44:24.774Z,31.48
2023-02-21T22:46:58.227Z,34.35
2023-02-21T22:49:26.810Z,33.10
2023-02-21T22:51:53.838Z,33.25
2023-02-21T22:54:21.160Z,34.30
2023-02-21T22:56:51.464Z,33.63
2023-02-21T22:59:19.959Z,33.53
2023-02-21T23:01:47.323Z,33.83
2023-02-21T23:04:25.474Z,34.03
2023-02-21T23:06:58.031Z,33.50
2023-02-21T23:09:26.685Z,34.38
2023-02-21T23:11:56.553Z,33.75
2023-02-21T23:14:23.377Z,32.92
2023-02-21T23:16:50.849Z,33.90
2023-02-21T23:19:17.801Z,33.83
2023-02-21T23:21:49.938Z,34.13
2023-02-21T23:24:20.048Z,33.00
2023-02-21T23:26:48.383Z,33.22
2023-02-21T23:29:17.972Z,32.75
2023-02-21T23:31:45.429Z,33.30
2023-02-21T23:34:12.642Z,33.83
2023-02-21T23:36:39.697Z,33.00
2023-02-21T23:39:09.108Z,33.05
2023-02-21T23:41:41.105Z,34.45
2023-02-21T23:44:12.880Z,33.28
2023-02-21T23:46:42.399Z,33.92
2023-02-21T23:49:11.413Z,33.38
2023-02-21T23:51:38.745Z,32.65
2023-02-21T23:54:07.155Z,30.77
2023-02-21T23:56:35.525Z,27.88
2023-02-21T23:59:06.086Z,27.88
